Latest Weather Observations for Maria Island

IDT60801

Issued at 12:05 pm EST Sunday 21 September 2014 (issued every 30 minutes, with the page automatically refreshed every 10 minutes)

About weather observations | Map of weather stations | Latest weather observations for TAS | Other Formats
Station Details ID: 092124 Name: MARIA ISLAND (POINT LESUEUR) Lat: -42.66 Lon: 148.02 Height: 28.0 m
Data from the previous 72 hours. | See also: Recent months at Maria Island
Date/Time
EST
Temp
°C
App
Temp
°C
Dew
Point
Rel
Hum
%
Delta-T
°C
Wind Press
QNH
hPa
Press
MSL
hPa
Rain
since 9 am
mm
Dir
 
Spd
km/h
Gust
km/h
Spd
kts
Gust
kts
21/12:00pm 17.2 15.4 5.5 46 5.6 SSW 4 9 2 5 1025.3 1025.3 0.0
21/11:30am 16.3 14.1 5.3 48 5.2 SSW 6 7 3 4 1025.6 1025.6 0.0
21/11:00am 17.1 15.6 6.6 50 5.2 S 4 9 2 5 1025.7 1025.7 0.0
21/10:30am 15.5 13.3 5.1 50 4.9 SW 6 11 3 6 1025.8 1025.8 0.0
21/10:00am 15.7 13.6 6.7 55 4.4 WNW 7 13 4 7 1026.0 1026.0 0.0
21/09:30am 14.8 12.9 6.9 59 3.9 NW 6 7 3 4 1025.9 1025.9 0.0
21/09:00am 13.9 11.9 6.3 60 3.6 WNW 6 7 3 4 1026.0 1026.0 0.0
21/08:30am 13.4 11.3 6.5 63 3.3 W 7 13 4 7 1025.7 1025.7 0.0
21/08:00am 12.8 9.1 6.2 64 3.1 W 15 19 8 10 1025.5 1025.5 0.0
21/07:30am 12.4 8.7 6.2 66 2.9 W 15 22 8 12 1025.2 1025.2 0.0
21/07:00am 11.8 9.1 5.4 65 2.9 W 9 13 5 7 1025.0 1025.0 0.0
21/06:30am 11.5 8.3 4.9 64 3.0 W 11 17 6 9 1024.7 1024.7 0.0
21/06:00am 10.9 6.9 4.8 66 2.7 NW 15 19 8 10 1024.4 1024.4 0.0
21/05:30am 10.8 7.1 4.7 66 2.8 NW 13 17 7 9 1024.3 1024.3 0.0
21/05:00am 10.6 6.9 4.5 66 2.7 NW 13 17 7 9 1024.1 1024.1 0.0
21/04:30am 10.5 6.4 4.4 66 2.7 NW 15 20 8 11 1024.2 1024.2 0.0
21/04:00am 10.5 5.6 4.2 65 2.8 NW 19 24 10 13 1024.1 1024.1 0.0
21/03:30am 10.4 5.3 4.3 66 2.7 NW 20 26 11 14 1024.1 1024.1 0.0
21/03:00am 10.4 5.9 4.1 65 2.8 WNW 17 24 9 13 1024.4 1024.4 0.0
21/02:30am 10.4 6.2 3.7 63 2.9 W 15 22 8 12 1024.7 1024.7 0.0
21/02:00am 10.7 4.5 4.2 64 2.9 W 26 33 14 18 1025.1 1025.1 0.0
21/01:30am 10.6 5.7 4.1 64 2.9 WSW 19 26 10 14 1025.2 1025.2 0.0
21/01:00am 10.6 6.8 4.1 64 2.9 WSW 13 20 7 11 1025.1 1025.1 0.0
21/12:30am 10.6 6.1 4.1 64 2.9 W 17 24 9 13 1024.9 1024.9 0.0
21/12:00am 10.6 6.6 4.7 67 2.6 W 15 22 8 12 1025.2 1025.2 0.0
 
Date/Time
EST
Temp
°C
App
Temp
°C
Dew
Point
Rel
Hum
%
Delta-T
°C
Wind Press
QNH
hPa
Press
MSL
hPa
Rain
since 9 am
mm
Dir
 
Spd
km/h
Gust
km/h
Spd
kts
Gust
kts
20/11:30pm 10.6 5.7 4.3 65 2.8 W 19 24 10 13 1025.2 1025.2 0.0
20/11:00pm 11.0 6.0 4.5 64 2.9 WSW 20 26 11 14 1025.5 1025.5 0.0
20/10:30pm 10.9 6.4 4.1 63 3.0 W 17 22 9 12 1025.5 1025.5 0.0
20/10:00pm 10.9 6.4 4.4 64 2.9 WSW 17 22 9 12 1025.5 1025.5 0.0
20/09:30pm 11.0 7.6 4.0 62 3.1 W 11 20 6 11 1025.4 1025.4 0.0
20/09:00pm 11.1 6.6 4.3 63 3.0 W 17 22 9 12 1025.4 1025.4 0.0
20/08:30pm 11.7 5.5 4.4 61 3.3 W 26 33 14 18 1025.1 1025.1 0.0
20/08:00pm 11.9 6.5 4.6 61 3.3 WSW 22 35 12 19 1024.9 1024.9 0.0
20/07:30pm 12.3 7.3 4.8 60 3.4 WSW 20 28 11 15 1024.6 1024.6 0.0
20/07:00pm 12.5 7.7 5.4 62 3.3 WSW 20 24 11 13 1023.8 1023.8 0.0
20/06:30pm 12.7 8.1 6.5 66 3.0 W 20 22 11 12 1023.5 1023.5 0.0
20/06:00pm 12.6 8.2 6.4 66 2.9 SW 19 22 10 12 1023.2 1023.2 0.0
20/05:30pm 13.2 6.5 7.2 67 2.9 SSW 32 35 17 19 1023.3 1023.3 0.0
20/05:00pm 13.2 7.1 6.8 65 3.1 SSW 28 33 15 18 1022.7 1022.7 0.0
20/04:30pm 13.9 6.9 6.7 62 3.5 SSW 33 43 18 23 1022.5 1022.5 0.0
20/04:00pm 14.4 8.1 7.2 62 3.5 SSW 30 35 16 19 1022.3 1022.3 0.0
20/03:30pm 13.9 6.6 7.4 65 3.2 SSW 35 41 19 22 1022.1 1022.1 0.0
20/03:00pm 13.8 6.6 7.8 67 3.0 S 35 44 19 24 1022.0 1022.0 0.0
20/02:30pm 14.1 8.4 8.5 69 2.8 S 28 35 15 19 1021.9 1021.9 0.0
20/02:00pm 15.3 9.2 8.1 62 3.6 S 30 37 16 20 1021.7 1021.7 0.0
20/01:30pm 14.7 8.2 8.2 65 3.3 S 32 37 17 20 1021.6 1021.6 0.0
20/01:00pm 14.6 8.0 7.9 64 3.3 S 32 37 17 20 1021.7 1021.7 0.0
20/12:30pm 14.2 8.4 7.9 66 3.1 SSW 28 35 15 19 1021.9 1021.9 0.0
20/12:00pm 13.6 8.2 8.2 70 2.7 S 26 33 14 18 1022.0 1022.0 0.0
20/11:30am 14.3 7.7 7.8 65 3.2 S 32 37 17 20 1022.1 1022.1 0.0
20/11:00am 14.2 8.7 7.5 64 3.3 SSW 26 32 14 17 1022.2 1022.2 0.0
20/10:30am 14.2 10.1 7.7 65 3.2 S 19 22 10 12 1022.4 1022.4 0.0
20/10:00am 13.6 9.7 7.2 65 3.1 SSW 17 22 9 12 1022.5 1022.5 0.0
20/09:30am 13.0 8.7 7.7 70 2.6 SSW 20 24 11 13 1022.6 1022.6 0.0
20/09:00am 12.5 7.4 7.8 73 2.3 SSW 24 28 13 15 1022.6 1022.6 0.0
20/08:30am 11.9 6.6 7.0 72 2.3 SSW 24 32 13 17 1022.4 1022.4 0.0
20/08:00am 11.7 5.3 7.0 73 2.2 SSW 30 37 16 20 1022.1 1022.1 0.0
20/07:30am 11.5 6.0 7.6 77 1.9 SSW 26 33 14 18 1021.9 1021.9 0.0
20/07:00am 11.1 6.0 7.6 79 1.7 SW 24 28 13 15 1021.6 1021.6 0.0
20/06:30am 10.4 3.9 8.0 85 1.2 SSW 32 35 17 19 1021.2 1021.2 0.0
20/06:00am 10.4 4.7 8.5 88 0.9 SSW 28 33 15 18 1021.0 1021.0 0.0
20/05:30am 10.8 4.5 8.9 88 0.9 SSW 32 39 17 21 1020.6 1020.6 0.0
20/05:00am 10.8 5.4 8.0 83 1.4 SSW 26 32 14 17 1020.0 1020.0 0.0
20/04:30am 10.8 5.6 7.3 79 1.7 SSW 24 28 13 15 1019.8 1019.8 0.0
20/04:00am 10.6 4.4 7.7 82 1.4 SSW 30 35 16 19 1019.5 1019.5 0.0
20/03:30am 11.1 4.4 7.2 77 1.9 SSW 32 37 17 20 1019.2 1019.2 0.0
20/03:00am 11.2 5.2 6.9 75 2.0 SSW 28 33 15 18 1018.8 1018.8 0.0
20/02:30am 11.4 4.3 6.3 71 2.4 SW 33 41 18 22 1018.4 1018.4 0.0
20/02:00am 11.6 3.3 6.3 70 2.5 SW 39 48 21 26 1018.4 1018.4 0.0
20/01:30am 11.6 5.1 6.5 71 2.4 SW 30 46 16 25 1018.5 1018.5 0.0
20/01:28am 11.4 5.3 6.5 72 2.3 SW 28 46 15 25 1018.5 1018.5 0.0
20/01:00am 11.2 7.3 6.9 75 2.0 SW 17 20 9 11 1019.0 1019.0 0.0
20/12:30am 10.9 6.6 7.2 78 1.8 SW 19 26 10 14 1018.8 1018.8 0.0
20/12:00am 10.9 6.1 7.2 78 1.8 SSW 22 28 12 15 1018.7 1018.7 0.0
 
Date/Time
EST
Temp
°C
App
Temp
°C
Dew
Point
Rel
Hum
%
Delta-T
°C
Wind Press
QNH
hPa
Press
MSL
hPa
Rain
since 9 am
mm
Dir
 
Spd
km/h
Gust
km/h
Spd
kts
Gust
kts
19/11:30pm 10.7 4.4 7.4 80 1.6 SW 30 37 16 20 1018.6 1018.6 0.0
19/11:00pm 10.8 3.6 7.7 81 1.5 SW 35 50 19 27 1018.5 1018.5 0.0
19/10:30pm 10.6 4.7 7.7 82 1.4 SW 28 35 15 19 1018.5 1018.5 0.0
19/10:00pm 11.3 5.7 7.2 76 2.0 SW 26 33 14 18 1018.2 1018.2 0.0
19/09:30pm 11.5 5.9 7.2 75 2.1 SW 26 30 14 16 1017.9 1017.9 0.0
19/09:00pm 11.1 6.3 7.4 78 1.8 SSW 22 32 12 17 1017.8 1017.8 0.0
19/08:30pm 11.9 4.9 7.0 72 2.3 SW 33 44 18 24 1017.6 1017.6 0.0
19/08:00pm 12.1 4.7 6.8 70 2.5 SW 35 50 19 27 1017.2 1017.2 0.0
19/07:30pm 12.4 5.2 6.0 65 3.0 WSW 33 50 18 27 1016.8 1016.8 0.0
19/07:29pm 12.4 5.4 6.0 65 3.0 WSW 32 50 17 27 1016.7 1016.7 0.0
19/07:00pm 12.5 5.2 5.4 62 3.3 WSW 33 48 18 26 1016.3 1016.3 0.0
19/06:30pm 12.5 5.7 5.0 60 3.5 WSW 30 39 16 21 1016.0 1016.0 0.0
19/06:00pm 12.6 6.2 5.3 61 3.4 SW 28 35 15 19 1015.8 1015.8 0.0
19/05:30pm 13.2 4.4 5.4 59 3.6 WSW 41 52 22 28 1015.4 1015.4 0.0
19/05:09pm 13.4 5.1 4.0 53 4.3 SW 37 57 20 31 1015.0 1015.0 0.0
19/05:00pm 13.8 5.2 4.9 55 4.1 SW 39 50 21 27 1014.9 1014.9 0.0
19/04:33pm 14.2 5.8 3.9 50 4.7 WSW 37 57 20 31 1014.5 1014.5 0.0
19/04:30pm 14.3 6.4 4.3 51 4.6 WSW 35 46 19 25 1014.6 1014.6 0.0
19/04:00pm 14.4 5.7 4.1 50 4.7 SW 39 50 21 27 1014.1 1014.1 0.0
19/03:30pm 14.6 5.8 3.7 48 5.0 SW 39 50 21 27 1013.9 1013.9 0.0
19/03:05pm 14.7 5.1 3.2 46 5.2 SW 43 67 23 36 1013.6 1013.6 0.0
19/03:00pm 14.7 5.6 4.1 49 4.9 SW 41 56 22 30 1013.7 1013.7 0.0
19/02:30pm 14.5 4.5 4.5 51 4.6 SW 46 65 25 35 1013.8 1013.8 0.0
19/02:27pm 14.5 4.8 3.9 49 4.9 SW 44 65 24 35 1013.5 1013.5 0.0
19/02:00pm 14.8 5.4 4.2 49 4.9 SW 43 59 23 32 1013.6 1013.6 0.0
19/01:39pm 14.7 6.4 4.1 49 4.9 SW 37 56 20 30 1013.8 1013.8 0.0
19/01:30pm 14.7 7.5 5.2 53 4.5 SW 32 46 17 25 1013.9 1013.9 0.0
19/01:22pm 15.0 7.5 4.4 49 4.9 SW 33 52 18 28 1014.1 1014.1 0.0
19/01:00pm 14.6 7.7 4.6 51 4.6 SW 30 44 16 24 1014.1 1014.1 0.0
19/12:30pm 14.2 5.0 5.6 56 4.1 SW 43 65 23 35 1014.1 1014.1 0.0
19/12:22pm 13.9 4.6 4.8 54 4.2 WSW 43 63 23 34 1013.7 1013.7 0.0
19/12:19pm 14.0 5.4 4.6 53 4.3 WSW 39 56 21 30 1013.8 1013.8 0.0
19/12:00pm 14.0 7.8 6.1 59 3.8 SW 28 35 15 19 1014.1 1014.1 0.0
19/11:30am 13.5 6.6 6.6 63 3.3 SW 32 43 17 23 1014.3 1014.3 0.0
19/11:00am 13.2 8.7 7.0 66 3.0 SSW 20 32 11 17 1014.4 1014.4 0.0
19/10:30am 12.9 6.8 6.7 66 3.0 SW 28 39 15 21 1014.6 1014.6 0.0
19/10:00am 12.4 6.3 6.7 68 2.7 SSW 28 39 15 21 1014.6 1014.6 0.0
19/09:30am 12.2 6.2 6.9 70 2.5 SW 28 39 15 21 1014.8 1014.8 0.0
19/09:00am 11.9 4.8 6.6 70 2.5 SW 33 43 18 23 1014.7 1014.7 1.2
19/08:30am 11.7 3.5 6.6 71 2.4 SW 39 50 21 27 1014.4 1014.4 1.2
19/08:00am 11.5 3.3 6.4 71 2.4 SW 39 50 21 27 1014.2 1014.2 1.2
19/07:30am 11.2 2.5 6.1 71 2.4 SW 41 52 22 28 1014.0 1014.0 1.2
19/07:00am 11.2 4.1 6.3 72 2.3 SW 33 41 18 22 1013.7 1013.7 1.2
19/06:30am 11.2 3.0 6.5 73 2.2 SW 39 46 21 25 1013.2 1013.2 1.2
19/06:00am 11.1 2.8 6.3 72 2.3 SW 39 48 21 26 1012.9 1012.9 1.2
19/05:30am 11.1 2.0 6.0 71 2.4 SW 43 57 23 31 1012.5 1012.5 1.2
19/05:00am 11.1 2.0 6.0 71 2.4 SW 43 57 23 31 1012.3 1012.3 1.2
19/04:30am 10.9 2.6 6.1 72 2.2 SW 39 50 21 27 1012.1 1012.1 1.2
19/04:03am 10.8 2.1 6.0 72 2.2 SW 41 61 22 33 1011.9 1011.9 1.2
19/04:00am 10.8 2.5 6.2 73 2.1 SW 39 52 21 28 1012.0 1012.0 1.2
19/03:30am 10.9 2.5 5.4 69 2.5 SW 39 50 21 27 1011.9 1011.9 1.2
19/03:18am 10.9 3.7 5.2 68 2.6 WSW 32 44 17 24 1011.9 1011.9 1.2
19/03:00am 10.5 5.6 4.9 68 2.5 WSW 20 26 11 14 1012.0 1012.0 1.2
19/02:30am 9.8 6.1 4.6 70 2.3 W 13 19 7 10 1012.2 1012.2 1.2
19/02:00am 9.7 6.0 4.5 70 2.3 W 13 15 7 8 1012.4 1012.4 1.2
19/01:30am 9.7 5.9 3.9 67 2.5 W 13 19 7 10 1012.9 1012.9 1.2
19/01:00am 9.9 6.0 3.6 65 2.8 WNW 13 17 7 9 1013.1 1013.1 1.2
19/12:30am 9.6 5.3 3.4 65 2.7 WNW 15 19 8 10 1013.3 1013.3 1.2
19/12:00am 9.2 4.9 3.0 65 2.7 WNW 15 20 8 11 1013.4 1013.4 1.2
 
Date/Time
EST
Temp
°C
App
Temp
°C
Dew
Point
Rel
Hum
%
Delta-T
°C
Wind Press
QNH
hPa
Press
MSL
hPa
Rain
since 9 am
mm
Dir
 
Spd
km/h
Gust
km/h
Spd
kts
Gust
kts
18/11:30pm 9.6 5.6 2.7 62 2.9 WNW 13 19 7 10 1013.6 1013.6 1.2
18/11:00pm 9.8 3.8 3.3 64 2.8 W 24 32 13 17 1013.7 1013.7 1.2
18/10:30pm 9.4 4.3 3.2 65 2.7 W 19 26 10 14 1014.1 1014.1 1.2
18/10:00pm 9.4 6.1 2.3 61 3.0 WNW 9 17 5 9 1014.3 1014.3 1.2
18/09:30pm 10.0 5.5 2.4 59 3.2 W 15 22 8 12 1014.7 1014.7 1.2
18/09:00pm 10.3 4.6 3.1 61 3.1 WSW 22 32 12 17 1014.9 1014.9 1.2
18/08:30pm 10.3 4.4 3.8 64 2.9 WSW 24 37 13 20 1014.8 1014.8 1.2
18/08:12pm 10.1 3.1 4.0 66 2.7 WSW 30 48 16 26 1014.8 1014.8 1.2
18/08:00pm 10.1 0.9 3.6 64 2.8 WSW 41 54 22 29 1014.7 1014.7 1.2
18/07:30pm 9.8 1.9 4.4 69 2.4 WSW 35 43 19 23 1014.6 1014.6 1.2
18/07:00pm 9.7 2.5 5.1 73 2.1 WSW 32 39 17 21 1014.7 1014.7 1.2
18/06:30pm 9.5 4.5 6.4 81 1.4 SW 22 30 12 16 1014.9 1014.9 1.2
18/06:00pm 9.6 4.1 5.8 77 1.7 SSW 24 30 13 16 1014.5 1014.5 1.2
18/05:30pm 9.2 3.4 6.1 81 1.4 SSW 26 32 14 17 1014.3 1014.3 1.2
18/05:00pm 10.2 3.8 5.4 72 2.2 SW 28 35 15 19 1013.8 1013.8 1.2
18/04:30pm 10.3 2.8 4.7 68 2.5 SW 33 48 18 26 1013.6 1013.6 1.2
18/04:00pm 10.8 4.0 5.3 69 2.5 SW 30 44 16 24 1013.4 1013.4 1.2
18/03:30pm 10.8 6.2 6.7 76 1.9 WSW 20 28 11 15 1013.6 1013.6 1.2
18/03:00pm 9.5 2.9 6.0 79 1.6 SW 30 35 16 19 1013.8 1013.8 1.2
18/02:30pm 8.9 4.4 6.0 82 1.3 SW 19 32 10 17 1013.5 1013.5 1.2
18/02:00pm 8.9 1.4 4.7 75 1.9 WSW 33 39 18 21 1013.4 1013.4 0.4
18/01:36pm 10.5 2.9 4.0 64 2.9 SW 33 57 18 31 1012.6 1012.6 0.0
18/01:30pm 10.5 3.4 3.3 61 3.1 WSW 30 43 16 23 1012.9 1012.9 0.0
18/01:00pm 12.1 6.4 3.1 54 4.0 WSW 22 30 12 16 1012.7 1012.7 0.0
18/12:30pm 11.8 7.3 4.1 59 3.5 SW 17 28 9 15 1013.3 1013.3 0.0

Other Formats:

Comma delimited format used in spreadsheet applications
http://www.bom.gov.au/fwo/IDT60801/IDT60801.95988.axf

JavaScript Object Notation format (JSON) in row-major order
http://www.bom.gov.au/fwo/IDT60801/IDT60801.95988.json